Terminal Aerodrome Forecast
Issued by NWS Charleston, WV

Home | Current Version | Previous Version | Text Only | Print | Product List | Glossary On
Versions: 1 2 3 4 5 6 7 8 9 10 11 12 13 14 15 16 17 18 19 20 21 22 23 24 25
000
FTUS41 KRLX 211300 AAA
TAFHTS
TAF AMD
KHTS 211356Z 2114/2212 24011G18KT P6SM SKC
     FM211600 25015G28KT P6SM SCT060
     FM212300 24011G18KT P6SM SCT070
     FM220300 22011KT P6SM BKN050
     FM220600 23011KT P6SM -SHRA OVC035=

USA.gov is the U.S. government's official web portal to all federal, state and local government web resources and services.